Pagrindinis puslapis
METAR-TAF:

METAR-TAF

Oro uostai :

Ojapokė, Amapa, Brazilija

platuma: 03-50N, ilguma: 051-50W, Aukštis: 39 m

Dabartinis oras

Ataskaita buvo paskelbta 4 valandos ir 39 minutes, ne 20:00 UTC
Vėjas 11 kt iš Šiaurės/Šiaurės Rytų
Temperatūra 29°C
Drėgmė 62%
Slėgis 1012 hPa
Matomumas 10 km arba daugiau
Mažai debesys ne aukštis 4000 ft

METAR: SBOI 282000Z 02011KT 9999 FEW040 29/21 Q1012

Laikas: 21:39 (00:39 UTC)

Prognozė

Ataskaita buvo paskelbta 3 valandos ir 28 minutes, ne 21:11 UTC
Prognozė galioja nuo 29 metu 00 UTC su 29 metu 12 UTC
Vėjas 10 kt iš Šiaurės
Matomumas 10 km arba daugiau
Išsisklaidę debesys ne aukštis 3000 ft

TAF: SBOI 282111Z 2900/2912 01010KT 9999 SCT030 TN24/2910Z TX26/2912Z RMK PHI

Orai ataskaitas ir orų prognozės (METAR, TAF).

turimą stotys yra geltonos ir raudonos taškus žemėlapyje.

Perkelti pele per norėdami pamatyti stoties vardą.

Tada spustelėkite, norėdami matyti oro stebėjimo ir prognozės.

Norėdami pakeisti žemėlapį: spustelėkite ant žalios mygtukų su juodo kryžiaus žemyn,; žalią mygtuką su brūkšneliu, jei norite nutolinti; arba žalių rodyklių gretimoms žemėlapius.


METAR-TAF: